Date,TemperatureHighF,TemperatureAvgF,TemperatureLowF,DewpointHighF,DewpointAvgF,DewpointLowF,HumidityHigh,HumidityAvg,HumidityLow,PressureMaxIn,PressureMinIn,WindSpeedMaxMPH,WindSpeedAvgMPH,GustSpeedMaxMPH,PrecipitationSumIn
2014-1-1,23.2,17.0,12.6,-19.1,-29.3,-33.4,18,10,10,30.12,29.95,16,5,16,0.00
2014-1-2,12.6,7.5,-2.6,-17.6,-26.6,-45.4,24,19,10,30.05,29.68,12,5,12,0.00
2014-1-3,10.6,0.6,-5.8,-35.1,-42.9,-48.0,10,10,10,30.16,29.69,15,4,15,0.00
2014-1-4,33.1,19.0,-3.5,-17.6,-28.5,-46.1,10,10,10,30.11,29.78,18,5,18,0.00
2014-1-5,36.3,31.1,23.2,26.1,-12.5,-25.2,71,18,10,29.91,29.23,9,3,11,0.12
2014-1-6,52.0,30.4,5.4,43.9,1.4,-39.0,89,34,10,29.52,28.99,34,11,34,0.20
2014-1-7,7.0,3.6,-1.3,-26.4,-39.3,-44.4,21,11,10,29.99,29.51,34,12,34,0.01
2014-1-8,24.4,12.7,5.7,-12.6,-26.8,-38.9,27,15,10,30.17,29.99,18,4,18,0.00
2014-1-9,31.3,20.5,14.9,-12.6,-21.6,-28.0,26,14,10,30.37,30.15,21,4,21,0.00
2014-1-10,39.4,29.5,16.9,21.3,8.6,-14.4,61,43,22,30.17,29.76,8,1,8,0.07
2014-1-11,54.7,46.9,31.6,42.4,32.2,16.9,79,57,32,29.76,28.96,35,6,35,0.20
2014-1-12,40.6,35.4,27.7,20.9,13.7,4.8,63,41,30,29.72,29.16,31,7,31,0.00
2014-1-13,52.5,42.8,25.9,30.2,3.1,-9.0,62,24,10,29.70,29.43,14,4,14,0.06
2014-1-14,44.6,40.1,28.6,37.6,30.0,17.2,81,67,49,29.58,29.38,10,2,10,0.12
2014-1-15,39.6,31.4,26.4,27.1,11.1,-5.7,67,44,20,29.72,29.52,11,2,11,0.00
2014-1-16,42.4,29.7,22.6,8.8,-3.3,-18.6,47,26,10,29.73,29.59,8,2,8,0.00
2014-1-17,43.2,32.7,25.0,13.8,-3.7,-19.0,51,24,10,29.60,29.54,14,3,14,0.00
2014-1-18,29.5,24.1,19.6,18.8,4.2,-12.1,64,44,23,29.60,29.50,17,4,17,0.00
2014-1-19,31.1,24.7,15.3,5.1,-10.7,-24.5,42,22,10,29.59,29.20,21,5,21,0.00
2014-1-20,30.9,21.5,7.3,16.7,-3.8,-18.9,58,33,14,29.75,29.24,18,4,18,0.00
2014-1-21,10.0,0.1,-10.3,-18.3,-40.9,-51.5,29,12,10,29.87,29.74,13,3,13,0.00
2014-1-22,10.0,-6.1,-23.1,-35.5,-48.2,-61.7,10,10,10,29.85,29.73,12,2,12,0.00
2014-1-23,19.6,6.5,-1.3,-23.5,-35.8,-44.4,21,12,10,30.02,29.77,12,2,12,0.00
2014-1-24,21.2,11.7,-0.2,-24.8,-31.5,-43.6,20,12,10,30.07,29.48,19,6,19,0.00
2014-1-25,27.7,21.2,12.2,3.5,-19.4,-33.7,44,18,10,29.48,29.00,24,8,24,0.00
2014-1-26,25.7,13.9,4.5,-18.0,-28.0,-37.3,25,14,10,29.51,29.26,27,5,27,0.00
2014-1-27,36.5,20.6,6.1,15.5,-23.7,-38.7,56,14,10,29.83,29.01,35,10,35,0.00
2014-1-28,16.0,4.1,-7.6,-31.1,-40.2,-49.4,10,10,10,30.06,29.83,24,6,24,0.00
2014-1-29,19.8,7.9,-8.3,-28.0,-37.2,-50.0,10,10,10,29.98,29.76,30,6,30,0.00
2014-1-30,34.2,20.4,2.3,-16.8,-27.4,-41.6,10,10,10,30.07,29.64,17,6,17,0.00
2014-1-31,35.6,30.7,25.5,-15.5,-19.3,-23.4,10,10,10,29.91,29.65,15,4,15,0.00
2014-2-1,42.8,32.9,21.0,21.7,-6.7,-23.2,59,22,10,29.97,29.59,21,2,21,0.14
2014-2-2,41.2,33.3,26.8,22.4,6.9,-12.1,59,34,10,29.93,29.57,14,3,14,0.02
2014-2-3,33.8,24.8,17.6,-4.7,-17.7,-26.2,28,15,10,30.11,29.91,14,3,14,0.00
2014-2-4,35.4,23.9,17.8,-12.4,-19.2,-26.6,23,14,10,30.21,29.95,9,2,9,0.00
2014-2-5,26.2,21.5,13.8,12.1,-0.6,-22.8,55,39,13,30.02,29.44,17,5,17,0.00
2014-2-6,25.0,14.1,2.8,-21.7,-28.0,-35.9,22,13,10,30.07,29.91,12,2,12,0.00
2014-2-7,23.7,15.4,-0.4,-24.8,-31.2,-44.0,12,10,10,30.02,29.92,21,5,21,0.00
2014-2-8,24.6,10.1,-9.2,-24.2,-35.4,-50.7,12,10,10,30.06,29.93,14,2,14,0.00
2014-2-9,23.5,16.2,5.7,-7.0,-22.3,-35.8,32,17,10,29.93,29.69,8,2,8,0.00
2014-2-10,27.1,17.7,12.4,-7.2,-20.1,-33.7,33,19,10,30.02,29.75,12,2,14,0.00
2014-2-11,24.6,13.9,8.8,-15.6,-22.1,-30.7,25,18,10,30.24,30.02,8,2,8,0.00
2014-2-12,31.8,13.8,-4.4,-18.7,-32.1,-47.0,17,10,10,30.26,29.94,11,2,11,0.08
2014-2-13,27.0,17.7,4.1,8.4,-17.4,-40.2,49,24,10,29.95,29.12,13,4,13,0.01
2014-2-14,35.2,26.4,20.8,5.7,-4.8,-18.9,45,28,10,29.48,29.08,19,5,19,0.02
2014-2-15,33.6,26.6,20.3,2.2,-7.1,-26.2,38,24,10,29.65,29.47,18,3,18,0.02
2014-2-16,21.2,16.8,7.0,-4.6,-14.4,-29.5,37,25,10,29.96,29.64,18,4,18,0.00
2014-2-17,29.7,10.4,-13.0,-20.1,-33.9,-53.7,26,11,10,30.20,29.82,8,1,8,0.02
2014-2-18,37.2,27.2,15.4,-14.3,-21.8,-31.3,14,10,10,29.81,29.59,20,7,27,0.01
2014-2-19,49.3,33.9,16.9,17.0,-8.9,-23.8,45,17,10,29.80,29.33,17,4,17,0.01
2014-2-20,48.0,35.8,24.1,20.8,2.4,-17.2,57,29,10,29.90,29.58,13,3,13,0.27
2014-2-21,46.8,37.9,35.1,32.3,16.2,-13.6,73,45,10,29.60,29.31,15,3,15,0.48
2014-2-22,50.9,41.9,34.5,-3.8,-10.3,-16.4,14,10,10,29.67,29.50,34,8,34,0.00
2014-2-23,47.7,37.9,27.3,2.8,-9.0,-21.0,27,13,10,29.70,29.59,17,4,17,0.00
2014-2-24,28.0,23.4,18.0,9.7,-18.2,-28.3,52,17,10,29.80,29.62,25,7,25,0.00
2014-2-25,27.7,18.9,15.8,-3.3,-19.5,-30.8,41,19,10,29.80,29.61,26,4,26,0.00
2014-2-26,19.6,12.9,-1.7,-5.5,-30.9,-44.7,35,12,10,29.68,29.51,27,6,27,0.08
2014-2-27,27.0,12.9,0.0,-3.8,-30.5,-42.1,34,13,10,29.81,29.26,27,8,27,0.00
2014-2-28,24.6,9.7,2.3,-20.7,-30.7,-41.6,22,14,10,30.12,29.81,14,2,14,0.02
2014-3-1,39.6,23.3,5.2,0.1,-24.1,-39.3,31,11,10,30.04,29.77,14,3,14,0.02
2014-3-2,26.2,17.9,10.0,-0.4,-16.4,-35.5,38,22,10,29.94,29.84,21,3,21,0.00
2014-3-3,18.7,10.1,5.4,-21.2,-33.3,-39.2,22,12,10,30.12,29.89,17,4,17,0.00
2014-3-4,24.6,11.6,-1.3,-18.8,-32.6,-44.4,20,11,10,30.12,29.97,10,2,17,0.00
2014-3-5,29.7,16.4,-2.4,-15.8,-25.8,-45.4,23,14,10,30.32,29.95,14,3,14,0.01
2014-3-6,32.5,10.9,-14.1,-17.9,-34.8,-54.5,10,10,10,30.40,30.08,8,2,8,0.00
2014-3-7,49.5,25.6,0.7,-4.9,-23.3,-43.1,10,10,10,30.09,29.62,11,2,11,0.00
2014-3-8,40.8,29.7,19.2,-0.5,-19.0,-28.3,24,11,10,29.72,29.57,11,2,11,0.00
2014-3-9,35.2,28.7,20.8,-8.7,-19.7,-27.0,19,11,10,29.84,29.51,14,4,17,0.00
2014-3-10,48.7,36.8,28.2,-4.3,-14.5,-21.3,17,10,10,29.54,29.20,11,2,11,0.00
2014-3-11,57.4,44.6,36.1,9.1,-4.2,-14.3,30,13,10,29.43,29.22,17,3,17,0.00
2014-3-12,36.5,27.1,12.4,22.6,4.8,-17.4,64,40,16,29.42,28.99,17,1,17,0.28
2014-3-13,22.5,13.2,7.5,-17.4,-28.6,-36.5,24,14,10,29.81,29.35,23,7,23,0.00
2014-3-14,52.7,33.2,13.3,-2.3,-17.4,-32.9,10,10,10,29.81,29.31,19,6,19,0.05
2014-3-15,46.2,37.7,24.8,9.6,-9.0,-23.9,28,14,10,29.85,29.32,27,6,27,0.09
2014-3-16,24.8,18.2,5.0,-23.9,-29.1,-39.5,10,10,10,30.07,29.85,16,5,16,0.00
2014-3-17,34.2,15.8,0.7,-16.6,-31.0,-42.9,11,10,10,29.98,29.81,8,2,10,0.00
2014-3-18,50.9,28.6,9.9,-3.7,-21.0,-35.8,10,10,10,29.94,29.84,11,2,11,0.00
2014-3-19,49.5,38.7,25.0,10.8,-8.9,-23.8,31,13,10,29.90,29.44,22,6,22,0.11
2014-3-20,42.3,37.8,31.5,13.2,-3.7,-15.5,35,18,10,29.62,29.38,28,7,28,0.01
2014-3-21,41.7,33.4,28.8,-0.7,-15.6,-21.0,26,11,10,29.80,29.62,18,6,18,0.00
2014-3-22,44.1,35.1,24.1,-9.1,-15.0,-22.5,21,11,10,29.78,29.31,28,6,28,0.02
2014-3-23,33.4,23.9,18.7,0.8,-23.0,-28.7,30,11,10,29.96,29.76,20,6,20,0.00
2014-3-24,28.9,20.0,10.8,-20.4,-27.4,-34.2,18,10,10,29.99,29.85,16,3,16,0.00
2014-3-25,42.6,25.7,9.5,-10.4,-20.0,-30.1,22,12,10,29.85,29.59,15,3,15,0.00
2014-3-26,28.0,22.6,19.0,-15.6,-25.6,-28.6,14,10,10,30.00,29.68,24,7,24,0.00
2014-3-27,42.3,30.2,15.4,-10.4,-19.7,-31.3,10,10,10,30.07,29.75,14,5,14,0.00
2014-3-28,53.4,43.9,34.2,22.4,-1.4,-15.5,34,16,10,29.89,29.47,21,6,21,0.20
2014-3-29,44.8,37.8,33.8,21.4,8.9,-10.5,55,34,10,29.98,29.59,14,4,14,0.71
2014-3-30,35.2,33.4,31.5,19.1,1.9,-16.2,54,30,10,29.74,29.53,24,10,24,0.44
2014-3-31,46.6,36.7,27.9,3.8,-11.6,-18.2,35,12,10,29.95,29.74,17,7,17,0.00
2014-4-1,62.6,41.4,23.9,6.5,-1.0,-16.4,38,20,10,29.93,29.57,13,2,13,0.00
2014-4-2,53.4,41.9,31.5,6.5,-5.5,-15.0,29,14,10,29.91,29.65,20,4,20,0.00
2014-4-3,47.3,36.4,24.3,7.5,-7.2,-16.2,40,17,10,29.98,29.80,10,3,10,0.00
2014-4-4,50.2,42.6,35.2,24.0,0.7,-15.8,46,20,10,29.78,29.31,17,5,17,0.34
2014-4-5,46.6,39.2,32.9,20.9,-5.7,-16.8,43,16,10,29.86,29.36,28,7,28,0.08
2014-4-6,59.5,39.8,26.2,6.9,-4.4,-16.7,41,17,10,29.96,29.86,11,2,11,0.00
2014-4-7,52.2,39.5,29.3,23.4,4.3,-16.8,52,27,10,29.87,29.25,18,4,18,0.61
2014-4-8,56.5,45.0,40.3,45.5,24.9,14.8,91,46,32,29.43,29.00,24,6,24,0.28
2014-4-9,50.0,41.0,30.9,22.8,-5.0,-16.2,57,16,10,29.73,29.41,18,4,18,0.00
2014-4-10,72.0,53.5,30.9,12.4,1.8,-16.7,31,13,10,29.75,29.45,24,7,24,0.00
2014-4-11,63.0,52.3,38.3,38.9,13.9,-6.6,65,27,10,29.78,29.56,11,3,11,0.05
2014-4-12,69.4,53.9,37.4,31.9,10.9,-2.6,67,24,10,29.92,29.78,14,3,14,0.00
2014-4-13,84.6,64.4,46.8,38.2,20.0,-2.9,62,24,10,29.82,29.48,30,4,30,0.05
2014-4-14,80.4,67.6,54.1,52.0,28.1,12.6,71,29,10,29.56,29.30,24,6,24,0.30
2014-4-15,64.9,42.9,28.2,43.9,3.1,-21.4,54,22,10,29.83,29.21,27,7,27,0.31
2014-4-16,40.1,30.4,21.7,-1.6,-17.5,-25.9,32,12,10,30.33,29.83,17,5,17,0.01
2014-4-17,59.2,41.0,23.4,2.5,-6.2,-23.5,32,14,10,30.39,30.18,18,4,18,0.00
2014-4-18,66.2,49.5,34.3,8.6,-3.7,-16.0,20,11,10,30.21,29.88,13,4,13,0.00
2014-4-19,54.7,43.8,34.9,12.5,-3.4,-12.9,29,14,10,30.17,29.97,14,4,14,0.00
2014-4-20,73.9,50.2,27.5,14.0,0.6,-19.9,31,14,10,30.20,29.89,13,2,13,0.00
2014-4-21,79.7,64.3,51.8,18.1,6.5,-3.0,10,10,10,29.90,29.47,14,3,14,0.00
2014-4-22,62.4,56.3,44.8,41.3,13.3,0.2,56,21,10,29.47,29.25,25,4,25,0.25
2014-4-23,45.5,42.4,39.6,22.0,-5.1,-12.6,45,14,10,29.69,29.35,24,7,24,0.06
2014-4-24,55.6,42.6,32.4,-0.2,-9.2,-16.9,22,11,10,29.83,29.68,20,5,20,0.00
2014-4-25,69.1,49.6,29.8,36.3,7.3,-12.7,62,22,10,29.79,29.36,20,4,20,0.20
2014-4-26,54.0,46.0,41.0,37.2,11.7,-6.6,65,28,10,29.69,29.39,21,5,21,0.11
2014-4-27,54.7,44.5,36.1,14.1,-3.5,-11.9,33,14,10,29.95,29.69,14,4,14,0.02
2014-4-28,65.5,47.7,29.8,18.7,1.8,-17.9,43,17,10,29.95,29.76,11,2,11,0.00
2014-4-29,54.7,49.3,43.5,29.6,8.2,-5.4,47,21,10,29.99,29.76,22,8,22,0.47
2014-4-30,52.9,46.5,42.8,37.7,14.7,-7.4,62,30,11,29.99,29.57,17,5,17,0.47
2014-5-1,65.8,54.7,47.7,63.4,30.5,-1.2,99,51,10,29.58,29.45,14,2,14,0.08
2014-5-2,60.3,52.9,47.3,27.6,14.7,0.3,46,23,10,29.56,29.44,21,5,21,0.00
2014-5-3,64.8,54.1,47.7,40.7,22.8,2.4,69,35,10,29.55,29.39,29,4,29,0.08
2014-5-4,56.1,49.1,43.9,33.2,14.3,-2.9,53,27,10,29.65,29.40,31,9,31,0.01
2014-5-5,62.1,49.3,40.3,24.2,8.9,-6.7,52,24,10,29.76,29.65,15,4,15,0.00
2014-5-6,62.4,50.5,38.5,26.1,8.8,-5.8,55,22,10,29.87,29.64,14,4,14,0.00
2014-5-7,70.2,52.2,32.4,37.5,11.6,-3.1,72,27,10,30.00,29.86,9,2,9,0.00
2014-5-8,81.0,61.1,44.4,40.2,17.3,3.0,52,23,10,29.87,29.75,12,2,12,0.00
2014-5-9,88.9,69.7,55.2,59.5,40.6,20.4,85,47,10,29.77,29.51,20,4,22,0.13
2014-5-10,77.5,68.5,56.8,65.0,30.5,2.4,99,35,10,29.66,29.50,22,5,22,0.21
2014-5-11,79.5,61.2,44.1,40.6,20.1,4.2,78,27,10,29.84,29.65,14,3,14,0.00
2014-5-12,89.6,68.7,48.0,44.5,28.3,11.4,76,30,10,29.83,29.73,8,2,8,0.00
2014-5-13,92.8,73.0,59.5,62.4,41.6,22.6,88,41,10,29.83,29.71,11,2,11,0.38
2014-5-14,92.5,73.5,58.6,63.9,42.0,22.2,96,42,10,29.88,29.74,11,3,11,0.34
2014-5-15,84.6,75.0,65.1,61.1,43.9,19.7,81,38,10,29.81,29.60,20,6,20,0.13
2014-5-16,65.1,52.8,41.9,61.0,43.4,26.1,97,72,42,29.72,29.55,13,3,13,0.76
2014-5-17,61.7,49.5,39.4,37.4,17.1,-1.6,79,38,10,29.91,29.67,15,2,15,0.00
2014-5-18,64.2,50.3,37.4,45.0,21.8,-1.2,85,45,10,30.00,29.90,20,2,20,0.02
2014-5-19,71.8,54.8,36.9,37.5,20.5,4.8,84,37,10,29.98,29.88,17,3,17,0.00
2014-5-20,76.5,60.3,42.3,46.2,24.7,7.4,87,37,10,29.92,29.75,8,1,10,0.00
2014-5-21,78.6,63.4,49.1,52.5,38.7,13.6,79,48,10,29.75,29.54,11,2,11,0.00
2014-5-22,77.0,63.9,55.2,61.3,46.7,30.0,93,59,20,29.62,29.51,17,2,17,0.02
2014-5-23,59.2,55.2,52.2,45.3,41.9,35.7,74,61,46,29.76,29.60,12,2,12,0.09
2014-5-24,73.8,60.7,52.9,47.8,38.7,19.6,80,50,14,29.85,29.75,9,2,9,0.00
2014-5-25,82.8,65.6,48.6,47.8,29.7,11.4,88,38,10,29.86,29.76,14,2,14,0.00
2014-5-26,87.6,74.0,59.0,48.8,24.5,13.4,68,19,10,29.77,29.61,18,4,18,0.00
2014-5-27,88.5,76.2,64.6,50.9,35.0,20.7,52,25,10,29.62,29.48,13,3,13,0.00
2014-5-28,71.8,60.3,54.1,55.5,43.8,30.4,86,57,28,29.87,29.52,10,3,10,0.00
2014-5-29,75.0,62.3,50.7,41.7,31.7,11.6,69,36,10,29.91,29.82,10,2,10,0.00
2014-5-30,77.4,62.0,46.0,56.4,33.1,13.2,91,46,10,29.91,29.82,14,2,14,0.00
2014-5-31,76.6,61.6,44.8,56.0,27.2,9.3,90,40,10,30.02,29.90,11,2,11,0.00
2014-6-1,87.6,66.9,43.9,56.5,28.9,14.1,91,36,10,30.06,29.85,10,2,10,0.00
2014-6-2,95.5,76.4,61.2,66.3,34.6,17.7,90,29,10,29.87,29.63,10,2,16,0.13
2014-6-3,90.0,74.5,62.6,73.3,57.7,38.3,100,62,18,29.67,29.46,15,2,15,0.07
2014-6-4,75.2,64.1,49.5,51.4,35.0,12.5,87,42,10,29.65,29.50,14,2,14,0.00
2014-6-5,70.5,58.9,47.5,47.8,35.8,20.4,86,48,16,29.61,29.47,16,2,16,0.00
2014-6-6,75.4,62.4,51.8,45.0,33.2,15.1,76,39,10,29.74,29.61,11,2,12,0.00
2014-6-7,86.9,66.7,50.2,53.4,32.6,13.4,90,42,10,29.81,29.68,11,2,11,0.00
2014-6-8,88.3,68.4,47.1,59.8,39.7,20.9,91,50,10,29.71,29.53,8,1,8,0.25
2014-6-9,76.5,68.6,62.2,64.4,56.2,46.3,94,67,35,29.69,29.61,10,1,10,0.02
2014-6-10,84.0,71.4,64.0,60.4,54.5,39.6,85,59,22,29.72,29.65,6,1,6,0.00
2014-6-11,67.8,65.4,63.5,62.2,59.2,54.3,89,81,62,29.71,29.70,4,1,4,0.00
2014-6-12,74.5,69.3,64.2,58.4,55.1,50.2,78,61,47,29.69,29.58,10,3,10,0.04
2014-6-13,88.2,71.0,61.9,66.2,56.1,35.5,81,64,19,29.59,29.42,21,2,21,0.27
2014-6-14,64.0,58.4,49.1,48.4,36.1,25.1,72,44,26,29.83,29.59,13,3,13,0.01
2014-6-15,79.9,64.5,52.0,47.3,33.3,14.0,77,39,10,29.95,29.83,8,2,8,0.00
2014-6-16,92.5,70.4,46.4,63.9,41.3,22.3,91,49,10,29.88,29.68,7,1,8,0.00
2014-6-17,94.5,77.6,61.3,68.8,51.6,25.5,93,53,10,29.82,29.44,21,2,21,0.18
2014-6-18,80.1,69.7,64.8,68.3,56.1,41.8,95,65,26,29.77,29.52,17,3,17,0.00
2014-6-19,78.8,70.0,50.2,60.0,33.4,10.1,87,38,10,29.86,29.74,14,3,14,0.00
2014-6-20,75.2,62.0,45.9,58.7,28.4,9.6,95,42,10,29.86,29.75,9,2,9,0.00
2014-6-21,81.0,64.6,45.9,58.0,30.1,11.9,94,41,10,29.77,29.66,8,1,8,0.00
2014-6-22,85.1,66.7,46.9,57.8,31.3,14.5,93,40,10,29.77,29.70,8,1,8,0.00
2014-6-23,89.1,71.6,48.6,58.6,37.0,21.8,89,39,10,29.81,29.69,9,2,9,0.00
2014-6-24,89.8,75.6,67.3,69.4,55.1,42.1,93,53,25,29.73,29.58,12,3,12,0.37
2014-6-25,77.4,70.7,66.7,69.1,65.7,61.3,91,85,59,29.65,29.59,5,1,8,0.64
2014-6-26,84.2,72.4,61.3,63.4,53.7,33.6,90,59,18,29.78,29.61,9,2,9,0.00
2014-6-27,92.5,73.6,57.4,68.9,43.6,21.3,97,49,10,29.92,29.78,8,1,8,0.00
2014-6-28,93.6,75.0,55.2,64.8,47.9,26.7,97,51,10,29.99,29.89,8,1,8,0.00
2014-6-29,93.4,78.8,62.8,61.1,48.7,27.8,86,45,10,29.92,29.73,11,2,11,0.00
2014-6-30,95.5,86.1,75.4,66.1,53.7,34.5,72,39,13,29.64,29.57,5,1,5,0.00
2014-7-1,94.5,83.6,73.6,70.4,56.1,29.3,83,44,11,29.58,29.43,21,3,21,0.08
2014-7-2,94.5,79.1,68.5,69.7,58.3,30.5,90,56,12,29.65,29.46,10,2,10,0.05
2014-7-3,86.4,71.5,63.9,70.4,61.5,48.0,97,74,28,29.72,29.63,16,1,16,0.04
2014-7-4,76.1,65.7,57.0,62.4,43.5,13.4,93,56,10,29.89,29.70,17,4,17,0.13
2014-7-5,84.0,68.0,54.1,57.2,37.5,12.6,90,45,10,29.94,29.82,14,3,14,0.01
2014-7-6,89.6,71.9,52.7,52.2,32.7,18.0,80,32,10,29.82,29.58,15,2,15,0.00
2014-7-7,81.9,72.1,60.6,67.1,55.7,40.3,80,57,35,29.58,29.39,13,2,21,0.25
2014-7-8,91.2,77.1,67.1,68.2,57.5,41.6,87,55,22,29.47,29.22,17,3,17,0.24
2014-7-9,79.3,68.8,59.4,58.5,50.3,40.0,84,54,27,29.75,29.39,14,2,14,0.05
2014-7-10,80.4,66.6,52.0,64.0,35.8,12.1,92,46,10,29.95,29.75,8,1,8,0.01
2014-7-11,89.1,68.2,48.2,59.0,35.9,16.2,89,45,10,30.00,29.90,7,1,7,0.00
2014-7-12,93.6,74.3,57.7,64.7,46.8,25.9,92,47,10,29.94,29.76,9,1,9,0.00
2014-7-13,84.2,73.1,64.4,67.7,61.4,51.0,88,68,33,29.76,29.50,14,2,14,0.14
2014-7-14,90.1,73.9,65.5,69.4,60.1,43.4,94,68,20,29.64,29.52,7,1,7,0.07
2014-7-15,86.4,70.9,61.3,72.4,59.9,45.8,100,72,25,29.54,29.41,15,1,15,0.07
2014-7-16,77.7,66.2,54.0,60.4,44.4,23.5,93,53,15,29.69,29.53,12,2,12,0.00
2014-7-17,81.3,64.3,52.5,56.5,44.3,16.6,90,57,10,29.88,29.69,9,1,9,0.01
2014-7-18,83.1,67.1,52.9,58.6,38.6,16.9,94,48,10,29.99,29.88,7,1,7,0.00
2014-7-19,86.0,69.5,54.0,60.1,44.6,20.3,90,52,10,29.98,29.87,8,1,8,0.00
2014-7-20,89.4,73.6,63.5,62.0,45.5,21.0,81,47,10,29.91,29.80,9,1,9,0.00
2014-7-21,92.8,77.3,63.1,64.3,49.6,27.1,83,47,10,29.90,29.82,7,1,7,0.00
2014-7-22,96.1,79.6,63.3,69.8,52.9,27.0,96,51,10,29.88,29.67,6,1,6,0.00
2014-7-23,90.9,76.3,65.5,67.5,59.2,48.5,79,57,25,29.69,29.54,14,3,14,0.22
2014-7-24,76.5,66.5,53.2,55.4,32.7,11.6,77,36,10,29.77,29.67,14,2,14,0.00
2014-7-25,84.2,67.1,52.3,53.5,38.0,14.9,89,48,10,29.81,29.69,10,2,10,0.00
2014-7-26,87.4,70.7,54.7,64.2,43.5,20.2,96,49,10,29.73,29.53,8,1,8,0.00
2014-7-27,87.1,73.6,65.8,69.9,55.9,36.9,95,59,18,29.53,29.34,12,2,12,0.79
2014-7-28,67.8,63.8,59.4,65.1,60.4,54.9,97,89,75,29.54,29.26,11,2,11,0.54
2014-7-29,76.5,63.4,52.5,59.5,41.2,13.0,96,56,10,29.73,29.53,10,2,10,0.01
2014-7-30,81.0,62.4,50.7,63.4,46.9,18.4,100,68,11,29.75,29.68,12,1,12,0.18
2014-7-31,82.4,64.8,53.1,64.3,49.5,27.3,100,66,16,29.84,29.73,9,1,9,0.18
2014-8-1,91.6,71.6,54.9,63.6,48.7,23.9,100,57,10,29.90,29.83,11,1,11,0.11
2014-8-2,90.9,74.0,59.4,70.1,52.2,24.6,100,57,10,29.89,29.78,8,1,8,0.01
2014-8-3,87.1,69.5,60.4,69.6,59.3,44.5,97,75,25,29.85,29.75,7,1,7,0.46
2014-8-4,87.8,72.5,63.0,71.2,56.9,35.7,100,67,17,29.84,29.76,6,1,6,0.01
2014-8-5,84.9,70.2,60.4,68.5,56.5,43.0,100,67,24,29.79,29.71,8,1,8,0.00
2014-8-6,79.3,70.0,62.8,67.2,49.8,16.3,100,64,10,29.71,29.67,9,2,9,0.00
2014-8-7,79.5,67.8,56.7,63.1,43.8,16.6,97,53,10,29.81,29.69,10,2,10,0.00
2014-8-8,81.5,67.0,53.8,60.5,45.2,20.9,100,57,11,29.89,29.81,8,1,8,0.00
2014-8-9,86.2,68.6,52.7,59.8,42.7,20.9,100,53,10,29.92,29.85,4,1,4,0.00
2014-8-10,91.6,71.0,52.3,65.3,43.0,21.8,100,52,10,29.93,29.82,4,1,4,0.00
2014-8-11,90.7,72.9,57.2,66.7,46.5,22.9,100,52,10,29.85,29.71,9,1,9,0.00
2014-8-12,74.5,69.0,63.9,65.3,55.4,39.1,90,64,33,29.72,29.50,21,4,21,0.53
2014-8-13,79.0,68.6,60.6,69.0,55.2,34.0,100,67,20,29.59,29.45,23,3,23,0.28
2014-8-14,71.8,60.1,52.9,51.6,42.7,20.0,88,57,16,29.64,29.56,11,2,11,0.06
2014-8-15,75.6,59.9,53.1,52.7,45.1,13.3,88,64,10,29.68,29.61,14,2,14,0.08
2014-8-16,77.7,62.6,50.5,59.3,47.3,26.3,96,65,16,29.68,29.58,12,2,12,0.44
2014-8-17,76.3,64.9,55.6,62.5,52.5,36.6,100,70,25,29.70,29.56,11,2,11,0.02
2014-8-18,77.7,63.9,49.5,64.3,43.4,16.3,99,58,11,29.72,29.64,8,1,8,0.00
2014-8-19,85.3,65.4,44.8,59.2,43.4,22.5,95,56,12,29.67,29.57,9,1,9,0.00
2014-8-20,83.3,69.5,58.8,69.1,61.7,53.0,100,79,37,29.70,29.61,7,1,7,0.07
2014-8-21,88.2,71.9,63.3,74.9,63.7,42.9,100,80,21,29.73,29.65,7,1,7,0.07
2014-8-22,84.2,70.0,62.2,71.7,62.6,52.0,100,80,34,29.77,29.68,9,1,9,0.07
2014-8-23,75.0,67.9,60.4,62.5,58.3,50.7,90,73,45,29.89,29.76,11,1,11,0.00
2014-8-24,91.2,70.3,55.6,67.3,46.0,20.4,100,58,10,29.95,29.86,8,1,8,0.00
2014-8-25,92.1,71.8,54.7,69.7,46.8,23.3,100,57,10,29.96,29.84,7,1,7,0.00
2014-8-26,91.6,73.2,55.9,69.1,45.4,23.6,100,52,10,29.89,29.73,8,1,8,0.00
2014-8-27,81.0,71.4,59.0,64.8,53.7,30.3,86,57,18,29.76,29.70,10,2,10,0.00
2014-8-28,59.0,58.6,57.7,56.5,56.0,55.0,93,91,87,29.75,29.73,4,1,4,0.00
2014-8-29,82.0,65.1,48.4,57.5,38.0,14.7,94,51,10,29.96,29.86,6,1,6,0.00
2014-8-30,88.5,71.1,53.8,58.8,48.4,26.6,100,54,11,29.91,29.72,11,3,11,0.00
2014-8-31,74.5,72.6,70.3,71.0,62.7,57.9,100,73,57,29.74,29.71,12,3,12,0.24
2014-9-1,92.5,76.9,65.7,76.4,59.9,38.9,100,67,16,29.75,29.59,5,1,5,0.00
2014-9-2,89.2,76.3,63.0,70.4,61.5,43.7,100,67,23,29.62,29.50,11,2,11,0.33
2014-9-3,86.5,71.3,60.6,69.7,51.7,19.3,100,64,10,29.84,29.62,11,2,11,0.01
2014-9-4,93.4,72.8,55.8,66.7,53.1,26.7,100,64,10,29.88,29.78,8,1,8,0.00
2014-9-5,94.5,79.5,65.7,73.8,57.6,38.2,100,57,15,29.85,29.62,11,2,11,0.01
2014-9-6,78.6,68.4,59.9,72.7,61.4,52.8,100,80,42,29.77,29.58,11,2,11,0.19
2014-9-7,78.1,63.4,50.4,59.0,39.5,12.3,100,57,10,29.99,29.77,11,2,11,0.01
2014-9-8,84.4,63.9,46.4,59.6,38.2,17.0,100,54,10,30.06,29.95,16,2,16,0.00
2014-9-9,81.7,68.1,55.6,57.1,43.7,25.4,85,47,13,30.01,29.83,10,2,10,0.00
2014-9-10,81.0,69.1,55.8,63.9,49.6,40.4,100,56,25,29.85,29.51,13,3,13,0.00
2014-9-11,74.1,66.6,57.6,69.1,50.6,41.3,94,57,40,29.83,29.39,20,5,20,0.12
2014-9-12,64.6,53.2,42.3,48.6,37.3,8.8,91,61,11,30.02,29.84,8,1,8,0.07
2014-9-13,68.0,50.3,40.1,59.5,44.2,35.8,100,82,40,30.01,29.77,23,2,23,0.32
2014-9-14,68.0,53.3,41.2,48.8,30.4,5.4,92,53,10,30.09,29.99,8,1,8,0.00
2014-9-15,75.0,58.7,44.1,53.1,35.1,9.4,93,56,10,29.99,29.77,9,1,9,0.12
2014-9-16,70.9,58.0,45.3,55.6,41.8,10.0,100,68,10,29.79,29.73,12,2,12,0.13
2014-9-17,76.5,56.7,44.2,52.1,34.6,8.6,100,60,10,29.79,29.70,11,1,11,0.01
2014-9-18,64.9,52.3,40.5,54.1,42.0,27.2,100,72,29,29.98,29.71,11,1,11,0.00
2014-9-19,70.9,50.2,32.9,42.6,25.1,3.2,91,53,10,30.11,29.91,8,1,8,0.00
2014-9-20,79.0,66.4,44.6,51.6,44.1,35.0,96,48,21,29.92,29.63,24,5,24,0.00
2014-9-21,84.2,68.4,58.6,61.5,50.1,41.0,93,55,26,29.65,29.27,22,3,22,0.48
2014-9-22,59.9,52.4,45.0,50.7,37.2,16.8,90,60,25,29.94,29.38,18,4,18,0.02
2014-9-23,79.5,57.3,43.2,46.7,33.3,11.5,88,54,10,30.15,29.93,12,2,12,0.00
2014-9-24,84.9,62.4,44.2,53.7,37.3,16.2,95,55,10,30.29,30.15,8,1,8,0.00
2014-9-25,76.8,60.3,46.9,54.6,39.3,13.0,96,59,10,30.21,30.03,11,1,11,0.00
2014-9-26,79.5,60.7,44.6,54.8,40.7,19.8,100,60,12,30.07,29.98,12,1,12,0.00
2014-9-27,83.5,63.3,48.4,57.6,42.8,19.6,100,62,10,30.04,29.95,8,1,8,0.00
2014-9-28,86.2,63.4,46.0,58.2,42.9,19.3,100,63,10,29.95,29.76,8,1,8,0.00
2014-9-29,86.4,65.3,50.5,63.8,44.7,19.1,100,63,10,29.77,29.62,7,1,7,0.00
2014-9-30,84.9,65.4,51.4,61.1,48.2,21.4,100,64,11,29.71,29.60,9,1,9,0.00
2014-10-1,81.5,63.6,54.1,64.1,52.4,19.5,100,74,12,29.85,29.71,6,1,6,0.00
2014-10-2,81.7,61.8,48.9,60.8,45.5,18.4,100,68,10,29.90,29.80,10,1,10,0.00
2014-10-3,77.9,64.6,51.1,57.1,43.4,26.1,100,56,15,29.80,29.38,22,4,22,0.01
2014-10-4,65.8,56.6,42.4,59.7,45.9,22.8,100,69,30,29.44,29.26,15,3,16,0.38
2014-10-5,57.7,46.8,36.0,43.1,25.0,2.2,83,47,11,29.63,29.43,11,2,14,0.00
2014-10-6,72.9,55.5,37.4,38.1,20.5,4.8,85,35,10,29.65,29.55,18,4,18,0.02
2014-10-7,72.0,63.7,58.1,47.7,23.1,7.1,67,24,10,29.64,29.44,19,5,19,0.00
2014-10-8,66.9,57.6,47.7,55.7,28.3,-3.3,94,42,10,29.65,29.37,30,4,30,0.20
2014-10-9,66.6,52.9,40.3,31.4,16.3,-0.6,68,28,10,29.79,29.61,21,4,21,0.00
2014-10-10,64.4,49.3,37.2,43.8,24.2,1.9,94,50,10,29.87,29.79,12,2,17,0.00
2014-10-11,61.2,47.2,36.1,46.7,27.8,-0.1,95,60,10,29.95,29.82,11,2,21,0.00
2014-10-12,67.8,47.4,32.7,42.4,23.1,1.9,97,54,10,30.05,29.94,8,2,8,0.00
2014-10-13,74.8,55.8,36.3,48.0,38.4,25.0,93,59,16,29.95,29.83,17,3,17,0.00
2014-10-14,83.8,73.1,61.7,51.5,39.7,19.6,67,35,10,29.84,29.61,22,7,22,0.00
2014-10-15,74.7,70.2,64.6,65.4,54.7,43.2,100,63,34,29.63,29.51,21,4,21,0.18
2014-10-16,78.3,65.6,52.9,70.5,56.1,31.0,100,77,21,29.52,29.32,11,2,11,0.53
2014-10-17,71.6,59.1,50.0,59.7,41.0,11.6,100,61,11,29.39,29.28,19,3,19,0.01
2014-10-18,58.8,53.4,44.2,53.0,46.9,34.0,92,80,44,29.57,29.25,20,4,20,0.20
2014-10-19,44.8,41.2,33.3,41.8,18.8,-9.3,91,49,10,29.80,29.57,16,4,16,0.05
2014-10-20,57.2,47.4,32.5,41.5,19.1,-1.9,90,41,10,29.76,29.59,11,3,11,0.11
2014-10-21,55.8,50.5,47.3,51.1,46.1,41.3,100,86,61,29.77,29.56,8,2,8,0.11
2014-10-22,56.7,48.8,45.0,45.7,37.5,26.5,96,68,32,29.90,29.77,15,6,15,0.01
2014-10-23,55.6,49.6,44.2,46.2,27.4,12.6,92,45,19,29.81,29.68,18,7,18,0.00
2014-10-24,63.9,52.5,43.9,44.7,25.8,-0.9,87,45,10,29.70,29.64,21,4,21,0.00
2014-10-25,68.7,55.0,43.9,40.6,29.6,7.7,78,46,10,29.64,29.27,24,4,24,0.00
2014-10-26,54.9,48.8,45.0,43.2,32.5,5.6,84,59,15,29.59,29.31,21,5,21,0.43
2014-10-27,64.6,51.0,43.9,34.9,21.1,0.9,68,36,10,29.78,29.59,11,3,11,0.00
2014-10-28,81.7,62.0,47.3,63.0,32.9,14.0,100,45,10,29.64,29.46,16,3,16,0.61
2014-10-29,62.8,54.1,47.8,62.3,30.7,1.0,100,45,10,29.68,29.56,17,3,17,0.02
2014-10-30,51.8,44.7,36.0,39.6,27.4,7.5,86,55,18,29.80,29.67,14,3,14,0.05
2014-10-31,54.9,44.0,34.5,40.9,23.6,-2.9,95,54,10,29.77,29.66,10,2,10,0.00
2014-11-1,47.1,40.7,37.6,32.2,21.3,9.2,78,48,26,29.81,29.69,24,7,24,0.05
2014-11-2,46.0,39.2,33.6,11.1,-2.1,-12.7,31,18,10,29.90,29.81,25,8,25,0.00
2014-11-3,63.1,49.3,37.4,15.9,3.1,-8.3,33,16,10,29.90,29.78,19,4,19,0.00
2014-11-4,70.2,58.6,48.6,11.1,2.5,-5.5,15,10,10,29.82,29.60,17,4,17,0.00
2014-11-5,62.2,50.2,33.6,35.7,14.5,-3.3,79,30,10,29.86,29.62,23,4,23,0.00
2014-11-6,47.3,40.5,33.6,42.5,35.6,26.7,97,84,46,29.84,29.42,8,2,8,0.47
2014-11-7,41.2,38.2,34.5,38.8,28.0,7.7,91,69,31,29.69,29.43,16,3,16,0.27
2014-11-8,46.2,40.4,33.1,20.8,0.3,-10.9,56,22,10,29.71,29.47,14,4,14,0.00
2014-11-9,50.9,43.9,36.1,18.5,1.8,-9.3,47,19,10,29.69,29.51,11,3,11,0.00
2014-11-10,62.8,49.6,41.4,32.6,7.2,-9.2,63,21,10,29.82,29.65,14,2,14,0.00
2014-11-11,70.5,59.6,51.3,21.9,4.5,-3.4,22,11,10,29.68,29.49,17,7,21,0.00
2014-11-12,61.9,47.7,36.0,37.5,5.7,-15.1,76,22,10,29.88,29.45,22,6,22,0.04
2014-11-13,38.3,34.5,30.2,26.1,4.4,-16.2,78,39,10,29.86,29.75,9,3,11,0.01
2014-11-14,39.0,30.3,26.1,31.0,15.2,-15.1,79,58,10,29.93,29.74,17,3,17,0.06
2014-11-15,44.4,30.4,19.6,23.3,13.0,-13.3,79,54,10,30.08,29.93,11,1,11,0.13
2014-11-16,42.6,36.4,29.1,19.7,-6.1,-17.2,59,18,10,30.00,29.71,11,4,11,0.00
2014-11-17,38.5,34.8,32.5,33.5,23.4,-16.1,87,68,10,29.72,29.22,23,2,23,0.54
2014-11-18,32.5,24.4,21.2,0.4,-22.4,-26.7,29,11,10,29.69,29.35,29,10,29,0.00
2014-11-19,32.0,25.1,18.1,4.7,-21.7,-29.1,44,12,10,29.90,29.53,25,8,25,0.00
2014-11-20,35.4,28.3,24.1,15.7,-12.4,-24.5,61,20,10,29.70,29.51,27,7,27,0.00
2014-11-21,36.5,24.8,17.2,3.0,-20.5,-27.3,40,13,10,30.18,29.71,17,5,17,0.00
2014-11-22,45.0,34.9,17.4,30.8,-6.7,-25.2,59,19,10,30.14,29.72,16,5,16,0.09
2014-11-23,55.2,49.0,42.1,36.1,18.3,-4.9,71,35,10,29.80,29.48,16,4,16,0.11
2014-11-24,74.1,61.2,46.9,45.3,25.7,-0.6,60,29,10,29.48,29.04,24,9,24,0.18
2014-11-25,53.8,44.3,36.9,19.5,-1.5,-12.7,36,16,10,29.94,29.41,24,5,24,0.00
2014-11-26,36.9,33.4,27.9,20.8,6.8,-14.6,71,39,11,29.97,29.73,7,2,7,0.00
2014-11-27,36.5,29.9,21.6,24.7,18.6,8.8,74,64,34,29.81,29.73,1,0,1,0.02
2014-11-28,31.5,25.6,20.3,19.7,-4.6,-23.9,74,34,10,29.96,29.81,18,4,18,0.00
2014-11-29,38.1,30.1,21.0,-1.2,-14.0,-22.1,36,15,10,29.97,29.68,14,4,14,0.01
2014-11-30,56.8,49.2,38.1,24.5,2.2,-13.6,30,14,10,29.68,29.59,15,7,15,0.01
2014-12-1,55.4,39.8,29.1,46.2,8.2,-20.6,79,35,10,30.33,29.59,20,6,20,0.08
2014-12-2,40.3,29.2,19.9,29.5,-5.7,-26.6,79,30,10,30.40,29.84,14,4,14,0.04
2014-12-3,45.1,40.4,33.8,31.7,17.9,-9.5,67,43,14,29.91,29.65,22,5,22,0.09
2014-12-4,36.7,30.7,20.8,7.3,-8.0,-18.9,51,22,10,30.26,29.91,19,4,19,0.01
2014-12-5,37.8,29.2,20.7,28.6,10.5,-12.7,81,50,11,30.27,29.99,11,2,11,0.01
2014-12-6,37.4,35.0,32.4,34.5,29.2,17.0,90,80,49,30.21,29.92,14,2,16,0.32
2014-12-7,33.3,25.0,0.0,17.4,-15.4,-28.3,52,17,10,30.47,30.21,14,5,14,0.00
2014-12-8,33.3,24.9,0.0,-10.8,-19.5,-27.5,23,11,10,30.39,30.03,18,5,18,0.00
2014-12-9,38.7,33.0,26.1,22.1,7.5,-11.4,56,34,18,30.03,29.69,17,4,17,0.00
2014-12-10,34.5,30.9,28.8,26.9,24.6,16.7,85,78,48,29.70,29.39,18,5,18,0.00
2014-12-11,28.9,27.2,24.6,25.0,21.3,15.9,85,78,69,29.62,29.38,0,0,0,0.00
2014-12-12,30.4,27.6,24.3,18.3,15.0,11.5,69,59,46,29.81,29.62,0,0,0,0.00
2014-12-13,34.3,29.8,18.0,30.0,19.2,4.2,84,65,43,29.81,29.66,12,1,12,0.06
2014-12-14,39.2,35.4,33.8,34.6,30.4,28.0,90,82,69,29.78,29.64,9,2,9,0.15
2014-12-15,39.7,35.5,33.6,35.8,27.7,20.7,89,74,47,29.84,29.75,6,1,6,0.01
2014-12-16,44.6,38.2,34.5,38.2,27.2,20.4,89,65,38,29.75,29.51,8,2,10,0.31
2014-12-17,42.4,37.9,32.5,39.0,29.9,20.3,91,73,47,29.65,29.50,17,5,17,0.21
2014-12-18,33.6,32.0,29.5,24.3,15.5,6.5,75,52,33,29.77,29.65,20,6,20,0.00
2014-12-19,29.7,27.2,25.2,15.3,5.6,-4.7,55,39,26,29.98,29.75,13,3,13,0.00
2014-12-20,32.4,27.5,24.3,12.2,1.1,-11.7,53,33,15,30.03,29.95,6,1,6,0.00
2014-12-21,33.1,29.9,26.1,13.2,5.6,-5.9,52,37,18,30.07,30.00,5,1,5,0.00
2014-12-22,44.1,35.2,29.8,19.7,-2.6,-14.4,53,21,10,30.05,29.84,12,3,12,0.05
2014-12-23,43.9,38.9,34.7,36.5,31.7,19.7,81,75,54,29.85,29.68,11,3,11,0.24
2014-12-24,58.5,47.0,41.4,48.4,41.5,34.0,90,81,60,29.68,29.00,13,3,13,0.48
2014-12-25,59.9,46.1,41.4,46.5,5.4,-10.6,66,21,10,29.84,29.01,30,9,30,0.08
2014-12-26,50.7,40.0,31.5,17.5,0.9,-10.8,55,22,10,29.98,29.84,21,4,21,0.00
2014-12-27,56.8,46.0,32.5,24.9,6.9,-4.5,54,26,10,29.93,29.58,14,3,14,0.00
2014-12-28,53.1,39.9,34.0,35.9,8.1,-13.0,66,31,10,29.82,29.54,17,5,17,0.18
2014-12-29,35.1,29.7,25.7,9.8,-10.3,-23.0,48,18,10,30.01,29.81,14,3,14,0.00
2014-12-30,28.4,22.1,18.3,9.7,-10.7,-27.6,50,26,10,30.18,30.01,13,2,13,0.01
2014-12-31,27.3,22.0,18.1,-11.3,-22.0,-29.5,24,14,10,30.05,29.73,24,6,24,0.01
2015-1-1,36.3,27.0,20.5,4.3,-20.2,-27.2,32,12,10,29.74,29.55,19,5,19,0.00
2015-1-2,32.2,27.3,15.3,15.1,-2.2,-19.4,57,31,10,30.18,29.67,16,4,17,0.00